sensor_id;sensor_type;location;lat;lon;timestamp;P1;durP1;ratioP1;P2;durP2;ratioP2
27402;SDS011;14862;49.494;8.530;2023-07-24T00:01:05;6.32;;;5.50;;
27402;SDS011;14862;49.494;8.530;2023-07-24T00:03:30;6.13;;;4.90;;
27402;SDS011;14862;49.494;8.530;2023-07-24T00:05:58;7.63;;;5.10;;
27402;SDS011;14862;49.494;8.530;2023-07-24T00:08:26;8.10;;;5.40;;
27402;SDS011;14862;49.494;8.530;2023-07-24T00:10:51;7.50;;;5.33;;
27402;SDS011;14862;49.494;8.530;2023-07-24T00:13:17;5.40;;;4.47;;
27402;SDS011;14862;49.494;8.530;2023-07-24T00:15:42;5.80;;;4.73;;
27402;SDS011;14862;49.494;8.530;2023-07-24T00:18:07;6.37;;;4.90;;
27402;SDS011;14862;49.494;8.530;2023-07-24T00:20:32;8.18;;;4.82;;
27402;SDS011;14862;49.494;8.530;2023-07-24T00:22:58;5.27;;;4.63;;
27402;SDS011;14862;49.494;8.530;2023-07-24T00:25:23;6.70;;;4.70;;
27402;SDS011;14862;49.494;8.530;2023-07-24T00:27:48;5.90;;;4.78;;
27402;SDS011;14862;49.494;8.530;2023-07-24T00:30:13;6.07;;;4.25;;
27402;SDS011;14862;49.494;8.530;2023-07-24T00:32:39;6.57;;;5.13;;
27402;SDS011;14862;49.494;8.530;2023-07-24T00:35:04;7.70;;;5.22;;
27402;SDS011;14862;49.494;8.530;2023-07-24T00:37:29;6.10;;;4.70;;
27402;SDS011;14862;49.494;8.530;2023-07-24T00:39:55;6.13;;;4.72;;
27402;SDS011;14862;49.494;8.530;2023-07-24T00:42:20;7.07;;;4.70;;
27402;SDS011;14862;49.494;8.530;2023-07-24T00:44:45;6.27;;;4.47;;
27402;SDS011;14862;49.494;8.530;2023-07-24T00:47:10;8.43;;;5.03;;
27402;SDS011;14862;49.494;8.530;2023-07-24T00:49:35;5.97;;;4.70;;
27402;SDS011;14862;49.494;8.530;2023-07-24T00:52:01;7.03;;;5.00;;
27402;SDS011;14862;49.494;8.530;2023-07-24T00:54:26;5.63;;;4.40;;
27402;SDS011;14862;49.494;8.530;2023-07-24T00:56:54;6.43;;;4.70;;
27402;SDS011;14862;49.494;8.530;2023-07-24T00:59:19;8.88;;;5.00;;
27402;SDS011;14862;49.494;8.530;2023-07-24T01:01:45;6.32;;;4.93;;
27402;SDS011;14862;49.494;8.530;2023-07-24T01:04:11;5.60;;;4.82;;
27402;SDS011;14862;49.494;8.530;2023-07-24T01:06:36;6.57;;;4.80;;
27402;SDS011;14862;49.494;8.530;2023-07-24T01:09:01;6.83;;;5.40;;
27402;SDS011;14862;49.494;8.530;2023-07-24T01:13:56;6.37;;;5.13;;
27402;SDS011;14862;49.494;8.530;2023-07-24T01:16:22;6.28;;;4.93;;
27402;SDS011;14862;49.494;8.530;2023-07-24T01:18:49;7.15;;;5.25;;
27402;SDS011;14862;49.494;8.530;2023-07-24T01:21:15;6.78;;;5.20;;
27402;SDS011;14862;49.494;8.530;2023-07-24T01:26:08;6.63;;;5.23;;
27402;SDS011;14862;49.494;8.530;2023-07-24T01:28:33;6.40;;;4.78;;
27402;SDS011;14862;49.494;8.530;2023-07-24T01:30:58;8.97;;;5.27;;
27402;SDS011;14862;49.494;8.530;2023-07-24T01:33:23;7.53;;;5.30;;
27402;SDS011;14862;49.494;8.530;2023-07-24T01:35:50;7.07;;;4.72;;
27402;SDS011;14862;49.494;8.530;2023-07-24T01:38:17;7.18;;;5.38;;
27402;SDS011;14862;49.494;8.530;2023-07-24T01:40:43;8.45;;;5.82;;
27402;SDS011;14862;49.494;8.530;2023-07-24T01:43:09;8.15;;;5.78;;
27402;SDS011;14862;49.494;8.530;2023-07-24T01:45:34;7.18;;;5.53;;
27402;SDS011;14862;49.494;8.530;2023-07-24T01:48:00;7.55;;;5.70;;
27402;SDS011;14862;49.494;8.530;2023-07-24T01:50:26;8.77;;;6.27;;
27402;SDS011;14862;49.494;8.530;2023-07-24T01:52:51;7.47;;;5.40;;
27402;SDS011;14862;49.494;8.530;2023-07-24T01:55:16;9.23;;;5.50;;
27402;SDS011;14862;49.494;8.530;2023-07-24T01:57:41;8.45;;;6.45;;
27402;SDS011;14862;49.494;8.530;2023-07-24T02:00:06;7.33;;;5.60;;
27402;SDS011;14862;49.494;8.530;2023-07-24T02:02:32;7.03;;;5.72;;
27402;SDS011;14862;49.494;8.530;2023-07-24T02:04:57;7.20;;;5.77;;
27402;SDS011;14862;49.494;8.530;2023-07-24T02:07:22;7.77;;;5.73;;
27402;SDS011;14862;49.494;8.530;2023-07-24T02:09:47;8.93;;;6.37;;
27402;SDS011;14862;49.494;8.530;2023-07-24T02:12:12;9.07;;;6.10;;
27402;SDS011;14862;49.494;8.530;2023-07-24T02:14:38;9.50;;;5.50;;
27402;SDS011;14862;49.494;8.530;2023-07-24T02:17:03;10.53;;;6.37;;
27402;SDS011;14862;49.494;8.530;2023-07-24T02:19:28;11.23;;;7.03;;
27402;SDS011;14862;49.494;8.530;2023-07-24T02:21:53;6.97;;;5.67;;
27402;SDS011;14862;49.494;8.530;2023-07-24T02:24:19;8.82;;;5.90;;
27402;SDS011;14862;49.494;8.530;2023-07-24T02:26:44;7.30;;;5.40;;
27402;SDS011;14862;49.494;8.530;2023-07-24T02:29:09;7.50;;;6.03;;
27402;SDS011;14862;49.494;8.530;2023-07-24T02:31:34;8.63;;;6.13;;
27402;SDS011;14862;49.494;8.530;2023-07-24T02:33:59;7.90;;;5.90;;
27402;SDS011;14862;49.494;8.530;2023-07-24T02:36:25;8.75;;;6.20;;
27402;SDS011;14862;49.494;8.530;2023-07-24T02:38:50;8.43;;;6.37;;
27402;SDS011;14862;49.494;8.530;2023-07-24T02:41:15;9.63;;;6.53;;
27402;SDS011;14862;49.494;8.530;2023-07-24T02:43:40;6.88;;;5.57;;
27402;SDS011;14862;49.494;8.530;2023-07-24T02:46:06;8.50;;;6.20;;
27402;SDS011;14862;49.494;8.530;2023-07-24T02:48:31;9.30;;;6.50;;
27402;SDS011;14862;49.494;8.530;2023-07-24T02:50:56;9.13;;;6.63;;
27402;SDS011;14862;49.494;8.530;2023-07-24T02:53:21;7.60;;;6.23;;
27402;SDS011;14862;49.494;8.530;2023-07-24T02:55:46;8.33;;;5.93;;
27402;SDS011;14862;49.494;8.530;2023-07-24T02:58:12;7.57;;;5.93;;
27402;SDS011;14862;49.494;8.530;2023-07-24T03:00:38;7.65;;;6.03;;
27402;SDS011;14862;49.494;8.530;2023-07-24T03:03:03;9.23;;;6.10;;
27402;SDS011;14862;49.494;8.530;2023-07-24T03:05:28;8.93;;;5.97;;
27402;SDS011;14862;49.494;8.530;2023-07-24T03:07:53;7.50;;;5.75;;
27402;SDS011;14862;49.494;8.530;2023-07-24T03:10:18;8.57;;;6.53;;
27402;SDS011;14862;49.494;8.530;2023-07-24T03:12:44;8.13;;;6.30;;
27402;SDS011;14862;49.494;8.530;2023-07-24T03:15:09;7.67;;;5.90;;
27402;SDS011;14862;49.494;8.530;2023-07-24T03:17:34;9.18;;;6.07;;
27402;SDS011;14862;49.494;8.530;2023-07-24T03:20:07;9.63;;;6.17;;
27402;SDS011;14862;49.494;8.530;2023-07-24T03:22:32;9.73;;;6.45;;
27402;SDS011;14862;49.494;8.530;2023-07-24T03:24:57;8.43;;;6.87;;
27402;SDS011;14862;49.494;8.530;2023-07-24T03:27:22;9.90;;;6.30;;
27402;SDS011;14862;49.494;8.530;2023-07-24T03:29:48;7.70;;;5.77;;
27402;SDS011;14862;49.494;8.530;2023-07-24T03:32:13;7.57;;;5.77;;
27402;SDS011;14862;49.494;8.530;2023-07-24T03:34:39;10.20;;;5.53;;
27402;SDS011;14862;49.494;8.530;2023-07-24T03:37:04;8.97;;;6.90;;
27402;SDS011;14862;49.494;8.530;2023-07-24T03:39:29;7.90;;;5.57;;
27402;SDS011;14862;49.494;8.530;2023-07-24T03:41:54;8.83;;;6.23;;
27402;SDS011;14862;49.494;8.530;2023-07-24T03:44:20;8.33;;;6.40;;
27402;SDS011;14862;49.494;8.530;2023-07-24T03:46:45;8.93;;;5.60;;
27402;SDS011;14862;49.494;8.530;2023-07-24T03:49:10;9.40;;;6.13;;
27402;SDS011;14862;49.494;8.530;2023-07-24T03:51:35;9.40;;;6.45;;
27402;SDS011;14862;49.494;8.530;2023-07-24T03:54:00;8.73;;;6.23;;
27402;SDS011;14862;49.494;8.530;2023-07-24T03:56:25;8.53;;;6.00;;
27402;SDS011;14862;49.494;8.530;2023-07-24T03:58:51;9.27;;;7.20;;
27402;SDS011;14862;49.494;8.530;2023-07-24T04:01:17;9.23;;;6.88;;
27402;SDS011;14862;49.494;8.530;2023-07-24T04:03:42;9.50;;;6.77;;
27402;SDS011;14862;49.494;8.530;2023-07-24T04:06:07;7.38;;;5.95;;
27402;SDS011;14862;49.494;8.530;2023-07-24T04:08:32;8.80;;;6.90;;
27402;SDS011;14862;49.494;8.530;2023-07-24T04:10:58;9.43;;;6.55;;
27402;SDS011;14862;49.494;8.530;2023-07-24T04:13:23;8.40;;;6.13;;
27402;SDS011;14862;49.494;8.530;2023-07-24T04:15:48;7.75;;;5.70;;
27402;SDS011;14862;49.494;8.530;2023-07-24T04:18:13;8.87;;;6.67;;
27402;SDS011;14862;49.494;8.530;2023-07-24T04:20:38;9.70;;;7.13;;
27402;SDS011;14862;49.494;8.530;2023-07-24T04:23:04;10.03;;;5.87;;
27402;SDS011;14862;49.494;8.530;2023-07-24T04:25:29;9.98;;;6.43;;
27402;SDS011;14862;49.494;8.530;2023-07-24T04:27:54;9.30;;;6.90;;
27402;SDS011;14862;49.494;8.530;2023-07-24T04:30:19;8.52;;;6.28;;
27402;SDS011;14862;49.494;8.530;2023-07-24T04:32:45;8.37;;;6.83;;
27402;SDS011;14862;49.494;8.530;2023-07-24T04:35:11;7.00;;;5.72;;
27402;SDS011;14862;49.494;8.530;2023-07-24T04:37:36;7.13;;;5.70;;
27402;SDS011;14862;49.494;8.530;2023-07-24T04:40:01;8.40;;;5.90;;
27402;SDS011;14862;49.494;8.530;2023-07-24T04:42:26;10.18;;;6.60;;
27402;SDS011;14862;49.494;8.530;2023-07-24T04:44:52;7.50;;;6.13;;
27402;SDS011;14862;49.494;8.530;2023-07-24T04:47:17;6.73;;;5.47;;
27402;SDS011;14862;49.494;8.530;2023-07-24T04:49:42;8.38;;;5.88;;
27402;SDS011;14862;49.494;8.530;2023-07-24T04:52:07;7.53;;;6.10;;
27402;SDS011;14862;49.494;8.530;2023-07-24T04:54:32;8.37;;;5.97;;
27402;SDS011;14862;49.494;8.530;2023-07-24T04:56:57;10.03;;;6.90;;
27402;SDS011;14862;49.494;8.530;2023-07-24T04:59:23;10.70;;;6.67;;
27402;SDS011;14862;49.494;8.530;2023-07-24T05:01:48;8.38;;;5.95;;
27402;SDS011;14862;49.494;8.530;2023-07-24T05:04:14;7.53;;;6.37;;
27402;SDS011;14862;49.494;8.530;2023-07-24T05:06:39;9.17;;;6.10;;
27402;SDS011;14862;49.494;8.530;2023-07-24T05:09:04;10.07;;;6.53;;
27402;SDS011;14862;49.494;8.530;2023-07-24T05:11:29;8.70;;;6.13;;
27402;SDS011;14862;49.494;8.530;2023-07-24T05:13:54;9.97;;;6.17;;
27402;SDS011;14862;49.494;8.530;2023-07-24T05:16:20;14.87;;;7.10;;
27402;SDS011;14862;49.494;8.530;2023-07-24T05:18:45;9.43;;;5.67;;
27402;SDS011;14862;49.494;8.530;2023-07-24T05:21:10;9.70;;;6.03;;
27402;SDS011;14862;49.494;8.530;2023-07-24T05:23:35;7.20;;;5.90;;
27402;SDS011;14862;49.494;8.530;2023-07-24T05:26:01;9.23;;;6.27;;
27402;SDS011;14862;49.494;8.530;2023-07-24T05:28:27;9.90;;;6.95;;
27402;SDS011;14862;49.494;8.530;2023-07-24T05:30:52;8.57;;;6.65;;
27402;SDS011;14862;49.494;8.530;2023-07-24T05:33:17;8.48;;;6.70;;
27402;SDS011;14862;49.494;8.530;2023-07-24T05:35:43;7.73;;;6.23;;
27402;SDS011;14862;49.494;8.530;2023-07-24T05:38:08;9.30;;;7.10;;
27402;SDS011;14862;49.494;8.530;2023-07-24T05:40:33;9.70;;;7.60;;
27402;SDS011;14862;49.494;8.530;2023-07-24T05:42:58;11.73;;;8.60;;
27402;SDS011;14862;49.494;8.530;2023-07-24T05:45:24;10.23;;;7.95;;
27402;SDS011;14862;49.494;8.530;2023-07-24T05:47:49;10.50;;;7.38;;
27402;SDS011;14862;49.494;8.530;2023-07-24T05:50:14;9.83;;;7.77;;
27402;SDS011;14862;49.494;8.530;2023-07-24T05:52:39;9.60;;;7.47;;
27402;SDS011;14862;49.494;8.530;2023-07-24T05:55:05;10.10;;;7.22;;
27402;SDS011;14862;49.494;8.530;2023-07-24T05:57:30;9.80;;;7.90;;
27402;SDS011;14862;49.494;8.530;2023-07-24T05:59:56;12.93;;;7.33;;
27402;SDS011;14862;49.494;8.530;2023-07-24T06:02:21;12.50;;;7.40;;
27402;SDS011;14862;49.494;8.530;2023-07-24T06:04:46;11.30;;;7.70;;
27402;SDS011;14862;49.494;8.530;2023-07-24T06:07:11;12.93;;;7.40;;
27402;SDS011;14862;49.494;8.530;2023-07-24T06:09:37;9.97;;;7.47;;
27402;SDS011;14862;49.494;8.530;2023-07-24T06:12:02;7.80;;;6.70;;
27402;SDS011;14862;49.494;8.530;2023-07-24T06:14:27;12.00;;;7.32;;
27402;SDS011;14862;49.494;8.530;2023-07-24T06:16:52;9.50;;;6.80;;
27402;SDS011;14862;49.494;8.530;2023-07-24T06:19:17;9.63;;;6.93;;
27402;SDS011;14862;49.494;8.530;2023-07-24T06:21:43;10.73;;;7.78;;
27402;SDS011;14862;49.494;8.530;2023-07-24T06:24:08;10.67;;;6.73;;
27402;SDS011;14862;49.494;8.530;2023-07-24T06:26:37;9.45;;;6.97;;
27402;SDS011;14862;49.494;8.530;2023-07-24T06:29:02;8.57;;;6.27;;
27402;SDS011;14862;49.494;8.530;2023-07-24T06:31:27;9.17;;;6.63;;
27402;SDS011;14862;49.494;8.530;2023-07-24T06:33:52;10.65;;;7.57;;
27402;SDS011;14862;49.494;8.530;2023-07-24T06:36:17;11.37;;;7.23;;
27402;SDS011;14862;49.494;8.530;2023-07-24T06:38:43;11.00;;;6.97;;
27402;SDS011;14862;49.494;8.530;2023-07-24T06:41:08;10.13;;;7.18;;
27402;SDS011;14862;49.494;8.530;2023-07-24T06:43:34;11.30;;;7.15;;
27402;SDS011;14862;49.494;8.530;2023-07-24T06:45:59;10.15;;;7.35;;
27402;SDS011;14862;49.494;8.530;2023-07-24T06:48:24;8.80;;;6.32;;
27402;SDS011;14862;49.494;8.530;2023-07-24T06:50:50;10.20;;;6.63;;
27402;SDS011;14862;49.494;8.530;2023-07-24T06:53:15;9.38;;;7.22;;
27402;SDS011;14862;49.494;8.530;2023-07-24T06:55:41;8.97;;;6.50;;
27402;SDS011;14862;49.494;8.530;2023-07-24T06:58:06;12.20;;;7.68;;
27402;SDS011;14862;49.494;8.530;2023-07-24T07:00:31;10.48;;;6.43;;
27402;SDS011;14862;49.494;8.530;2023-07-24T07:02:56;10.95;;;6.88;;
27402;SDS011;14862;49.494;8.530;2023-07-24T07:05:21;11.77;;;7.50;;
27402;SDS011;14862;49.494;8.530;2023-07-24T07:07:47;9.70;;;6.73;;
27402;SDS011;14862;49.494;8.530;2023-07-24T07:10:12;9.47;;;7.43;;
27402;SDS011;14862;49.494;8.530;2023-07-24T07:12:37;11.03;;;7.67;;
27402;SDS011;14862;49.494;8.530;2023-07-24T07:15:02;8.53;;;6.77;;
27402;SDS011;14862;49.494;8.530;2023-07-24T07:17:28;8.13;;;6.65;;
27402;SDS011;14862;49.494;8.530;2023-07-24T07:19:53;9.97;;;6.97;;
27402;SDS011;14862;49.494;8.530;2023-07-24T07:22:18;9.57;;;7.18;;
27402;SDS011;14862;49.494;8.530;2023-07-24T07:24:43;10.43;;;7.97;;
27402;SDS011;14862;49.494;8.530;2023-07-24T07:27:09;11.18;;;7.18;;
27402;SDS011;14862;49.494;8.530;2023-07-24T07:29:34;9.93;;;7.20;;
27402;SDS011;14862;49.494;8.530;2023-07-24T07:31:59;8.83;;;6.83;;
27402;SDS011;14862;49.494;8.530;2023-07-24T07:34:24;8.45;;;7.55;;
27402;SDS011;14862;49.494;8.530;2023-07-24T07:36:50;9.13;;;6.40;;
27402;SDS011;14862;49.494;8.530;2023-07-24T07:39:15;9.57;;;6.43;;
27402;SDS011;14862;49.494;8.530;2023-07-24T07:41:40;7.15;;;6.28;;
27402;SDS011;14862;49.494;8.530;2023-07-24T07:44:05;14.23;;;6.97;;
27402;SDS011;14862;49.494;8.530;2023-07-24T07:46:31;8.17;;;6.10;;
27402;SDS011;14862;49.494;8.530;2023-07-24T07:48:56;10.43;;;6.63;;
27402;SDS011;14862;49.494;8.530;2023-07-24T07:51:21;9.07;;;7.27;;
27402;SDS011;14862;49.494;8.530;2023-07-24T07:53:46;8.33;;;6.83;;
27402;SDS011;14862;49.494;8.530;2023-07-24T07:56:11;8.70;;;5.73;;
27402;SDS011;14862;49.494;8.530;2023-07-24T07:58:37;9.50;;;6.73;;
27402;SDS011;14862;49.494;8.530;2023-07-24T08:01:05;9.27;;;6.20;;
27402;SDS011;14862;49.494;8.530;2023-07-24T08:03:31;7.03;;;5.95;;
27402;SDS011;14862;49.494;8.530;2023-07-24T08:05:56;7.50;;;6.38;;
27402;SDS011;14862;49.494;8.530;2023-07-24T08:08:22;8.82;;;5.80;;
27402;SDS011;14862;49.494;8.530;2023-07-24T08:10:47;6.67;;;5.93;;
27402;SDS011;14862;49.494;8.530;2023-07-24T08:13:12;8.53;;;6.17;;
27402;SDS011;14862;49.494;8.530;2023-07-24T08:15:37;9.70;;;6.43;;
27402;SDS011;14862;49.494;8.530;2023-07-24T08:18:03;9.07;;;6.30;;
27402;SDS011;14862;49.494;8.530;2023-07-24T08:20:29;9.60;;;6.43;;
27402;SDS011;14862;49.494;8.530;2023-07-24T08:22:54;7.85;;;6.53;;
27402;SDS011;14862;49.494;8.530;2023-07-24T08:25:20;9.87;;;6.30;;
27402;SDS011;14862;49.494;8.530;2023-07-24T08:27:45;8.10;;;6.30;;
27402;SDS011;14862;49.494;8.530;2023-07-24T08:30:10;8.77;;;6.23;;
27402;SDS011;14862;49.494;8.530;2023-07-24T08:32:35;10.07;;;6.68;;
27402;SDS011;14862;49.494;8.530;2023-07-24T08:35:01;8.10;;;6.15;;
27402;SDS011;14862;49.494;8.530;2023-07-24T08:37:26;10.00;;;7.70;;
27402;SDS011;14862;49.494;8.530;2023-07-24T08:39:51;10.23;;;7.00;;
27402;SDS011;14862;49.494;8.530;2023-07-24T08:42:16;10.37;;;6.77;;
27402;SDS011;14862;49.494;8.530;2023-07-24T08:44:42;10.87;;;6.53;;
27402;SDS011;14862;49.494;8.530;2023-07-24T08:47:10;9.32;;;6.88;;
27402;SDS011;14862;49.494;8.530;2023-07-24T08:49:38;9.25;;;6.93;;
27402;SDS011;14862;49.494;8.530;2023-07-24T08:52:05;10.32;;;7.20;;
27402;SDS011;14862;49.494;8.530;2023-07-24T08:54:30;10.05;;;7.25;;
27402;SDS011;14862;49.494;8.530;2023-07-24T08:56:57;9.73;;;6.85;;
27402;SDS011;14862;49.494;8.530;2023-07-24T08:59:22;10.10;;;6.47;;
27402;SDS011;14862;49.494;8.530;2023-07-24T09:01:47;9.60;;;6.40;;
27402;SDS011;14862;49.494;8.530;2023-07-24T09:04:13;11.27;;;7.03;;
27402;SDS011;14862;49.494;8.530;2023-07-24T09:06:38;8.20;;;6.20;;
27402;SDS011;14862;49.494;8.530;2023-07-24T09:09:11;9.73;;;6.35;;
27402;SDS011;14862;49.494;8.530;2023-07-24T09:14:02;7.30;;;6.20;;
27402;SDS011;14862;49.494;8.530;2023-07-24T09:16:27;11.37;;;6.60;;
27402;SDS011;14862;49.494;8.530;2023-07-24T09:18:52;7.88;;;6.28;;
27402;SDS011;14862;49.494;8.530;2023-07-24T09:21:30;8.00;;;6.55;;
27402;SDS011;14862;49.494;8.530;2023-07-24T09:23:56;8.65;;;7.30;;
27402;SDS011;14862;49.494;8.530;2023-07-24T09:26:22;8.15;;;6.40;;
27402;SDS011;14862;49.494;8.530;2023-07-24T09:28:51;9.32;;;7.05;;
27402;SDS011;14862;49.494;8.530;2023-07-24T09:31:17;10.60;;;7.38;;
27402;SDS011;14862;49.494;8.530;2023-07-24T09:33:42;10.10;;;6.55;;
27402;SDS011;14862;49.494;8.530;2023-07-24T09:36:11;8.98;;;6.78;;
27402;SDS011;14862;49.494;8.530;2023-07-24T09:38:37;8.55;;;6.30;;
27402;SDS011;14862;49.494;8.530;2023-07-24T09:41:03;8.25;;;6.60;;
27402;SDS011;14862;49.494;8.530;2023-07-24T09:43:29;9.20;;;6.65;;
27402;SDS011;14862;49.494;8.530;2023-07-24T09:45:55;8.65;;;6.28;;
27402;SDS011;14862;49.494;8.530;2023-07-24T09:48:21;10.70;;;7.32;;
27402;SDS011;14862;49.494;8.530;2023-07-24T09:50:47;10.90;;;6.78;;
27402;SDS011;14862;49.494;8.530;2023-07-24T09:53:24;10.52;;;7.65;;
27402;SDS011;14862;49.494;8.530;2023-07-24T09:55:52;10.73;;;6.60;;
27402;SDS011;14862;49.494;8.530;2023-07-24T09:58:20;12.93;;;7.35;;
27402;SDS011;14862;49.494;8.530;2023-07-24T10:00:46;8.60;;;7.05;;
27402;SDS011;14862;49.494;8.530;2023-07-24T10:03:13;10.77;;;6.88;;
27402;SDS011;14862;49.494;8.530;2023-07-24T10:05:38;8.60;;;6.75;;
27402;SDS011;14862;49.494;8.530;2023-07-24T10:08:03;11.50;;;7.75;;
27402;SDS011;14862;49.494;8.530;2023-07-24T10:10:29;9.85;;;6.43;;
27402;SDS011;14862;49.494;8.530;2023-07-24T10:12:57;8.13;;;6.65;;
27402;SDS011;14862;49.494;8.530;2023-07-24T10:15:22;7.90;;;6.90;;
27402;SDS011;14862;49.494;8.530;2023-07-24T10:17:47;8.40;;;6.43;;
27402;SDS011;14862;49.494;8.530;2023-07-24T10:20:15;10.47;;;7.57;;
27402;SDS011;14862;49.494;8.530;2023-07-24T10:22:41;6.78;;;5.97;;
27402;SDS011;14862;49.494;8.530;2023-07-24T10:25:08;8.52;;;6.35;;
27402;SDS011;14862;49.494;8.530;2023-07-24T10:27:42;7.68;;;6.05;;
27402;SDS011;14862;49.494;8.530;2023-07-24T10:30:07;9.00;;;7.68;;
27402;SDS011;14862;49.494;8.530;2023-07-24T10:32:33;8.23;;;6.63;;
27402;SDS011;14862;49.494;8.530;2023-07-24T10:35:08;8.80;;;6.72;;
27402;SDS011;14862;49.494;8.530;2023-07-24T10:37:37;8.25;;;6.60;;
27402;SDS011;14862;49.494;8.530;2023-07-24T10:40:05;9.35;;;7.15;;
27402;SDS011;14862;49.494;8.530;2023-07-24T10:42:30;10.18;;;6.85;;
27402;SDS011;14862;49.494;8.530;2023-07-24T10:45:16;11.48;;;6.82;;
27402;SDS011;14862;49.494;8.530;2023-07-24T10:47:42;8.73;;;6.07;;
27402;SDS011;14862;49.494;8.530;2023-07-24T10:50:07;10.17;;;6.00;;
27402;SDS011;14862;49.494;8.530;2023-07-24T10:52:33;8.55;;;6.18;;
27402;SDS011;14862;49.494;8.530;2023-07-24T10:55:01;10.15;;;7.10;;
27402;SDS011;14862;49.494;8.530;2023-07-24T10:57:27;9.25;;;6.30;;
27402;SDS011;14862;49.494;8.530;2023-07-24T10:59:52;8.50;;;7.05;;
27402;SDS011;14862;49.494;8.530;2023-07-24T11:02:18;11.90;;;6.72;;
27402;SDS011;14862;49.494;8.530;2023-07-24T11:04:43;9.13;;;6.50;;
27402;SDS011;14862;49.494;8.530;2023-07-24T11:07:08;10.25;;;6.88;;
27402;SDS011;14862;49.494;8.530;2023-07-24T11:09:34;9.73;;;6.70;;
27402;SDS011;14862;49.494;8.530;2023-07-24T11:12:00;8.65;;;6.05;;
27402;SDS011;14862;49.494;8.530;2023-07-24T11:14:33;9.48;;;5.68;;
27402;SDS011;14862;49.494;8.530;2023-07-24T11:16:58;12.10;;;6.10;;
27402;SDS011;14862;49.494;8.530;2023-07-24T11:19:24;6.93;;;5.97;;
27402;SDS011;14862;49.494;8.530;2023-07-24T11:21:49;7.60;;;5.80;;
27402;SDS011;14862;49.494;8.530;2023-07-24T11:24:15;10.43;;;6.75;;
27402;SDS011;14862;49.494;8.530;2023-07-24T11:26:42;10.75;;;6.47;;
27402;SDS011;14862;49.494;8.530;2023-07-24T11:29:11;6.90;;;5.72;;
27402;SDS011;14862;49.494;8.530;2023-07-24T11:31:36;9.95;;;5.90;;
27402;SDS011;14862;49.494;8.530;2023-07-24T11:34:03;9.45;;;6.30;;
27402;SDS011;14862;49.494;8.530;2023-07-24T11:36:28;9.73;;;6.18;;
27402;SDS011;14862;49.494;8.530;2023-07-24T11:38:53;9.18;;;6.53;;
27402;SDS011;14862;49.494;8.530;2023-07-24T11:41:19;9.17;;;6.50;;
27402;SDS011;14862;49.494;8.530;2023-07-24T11:43:45;7.57;;;6.05;;
27402;SDS011;14862;49.494;8.530;2023-07-24T11:46:10;11.13;;;6.65;;
27402;SDS011;14862;49.494;8.530;2023-07-24T11:48:40;8.13;;;6.23;;
27402;SDS011;14862;49.494;8.530;2023-07-24T11:51:06;11.60;;;6.57;;
27402;SDS011;14862;49.494;8.530;2023-07-24T11:53:31;8.13;;;5.88;;
27402;SDS011;14862;49.494;8.530;2023-07-24T11:55:57;11.77;;;6.18;;
27402;SDS011;14862;49.494;8.530;2023-07-24T11:58:26;9.20;;;6.07;;
27402;SDS011;14862;49.494;8.530;2023-07-24T12:00:52;7.10;;;6.07;;
27402;SDS011;14862;49.494;8.530;2023-07-24T12:03:20;6.88;;;5.85;;
27402;SDS011;14862;49.494;8.530;2023-07-24T12:05:46;7.97;;;5.97;;
27402;SDS011;14862;49.494;8.530;2023-07-24T12:08:11;8.43;;;6.22;;
27402;SDS011;14862;49.494;8.530;2023-07-24T12:10:39;10.75;;;6.22;;
27402;SDS011;14862;49.494;8.530;2023-07-24T12:13:05;7.00;;;5.25;;
27402;SDS011;14862;49.494;8.530;2023-07-24T12:15:30;9.13;;;5.90;;
27402;SDS011;14862;49.494;8.530;2023-07-24T12:17:55;8.02;;;6.18;;
27402;SDS011;14862;49.494;8.530;2023-07-24T12:20:22;9.02;;;6.03;;
27402;SDS011;14862;49.494;8.530;2023-07-24T12:22:47;7.15;;;5.88;;
27402;SDS011;14862;49.494;8.530;2023-07-24T12:25:12;8.82;;;5.85;;
27402;SDS011;14862;49.494;8.530;2023-07-24T12:27:38;8.27;;;6.22;;
27402;SDS011;14862;49.494;8.530;2023-07-24T12:30:05;8.02;;;6.00;;
27402;SDS011;14862;49.494;8.530;2023-07-24T12:32:31;8.27;;;6.03;;
27402;SDS011;14862;49.494;8.530;2023-07-24T12:34:56;10.63;;;6.05;;
27402;SDS011;14862;49.494;8.530;2023-07-24T12:37:21;7.97;;;5.88;;
27402;SDS011;14862;49.494;8.530;2023-07-24T12:39:47;7.93;;;5.65;;
27402;SDS011;14862;49.494;8.530;2023-07-24T12:42:13;8.63;;;6.47;;
27402;SDS011;14862;49.494;8.530;2023-07-24T12:44:38;11.18;;;6.63;;
27402;SDS011;14862;49.494;8.530;2023-07-24T12:47:03;7.37;;;6.03;;
27402;SDS011;14862;49.494;8.530;2023-07-24T12:49:29;7.53;;;6.22;;
27402;SDS011;14862;49.494;8.530;2023-07-24T12:51:54;6.30;;;5.70;;
27402;SDS011;14862;49.494;8.530;2023-07-24T12:54:19;9.93;;;5.93;;
27402;SDS011;14862;49.494;8.530;2023-07-24T12:56:46;7.93;;;6.22;;
27402;SDS011;14862;49.494;8.530;2023-07-24T12:59:12;7.78;;;6.25;;
27402;SDS011;14862;49.494;8.530;2023-07-24T13:01:37;9.07;;;7.07;;
27402;SDS011;14862;49.494;8.530;2023-07-24T13:04:02;10.02;;;7.00;;
27402;SDS011;14862;49.494;8.530;2023-07-24T13:06:28;6.97;;;6.28;;
27402;SDS011;14862;49.494;8.530;2023-07-24T13:08:53;8.45;;;5.60;;
27402;SDS011;14862;49.494;8.530;2023-07-24T13:11:18;7.87;;;5.90;;
27402;SDS011;14862;49.494;8.530;2023-07-24T13:13:43;8.63;;;5.67;;
27402;SDS011;14862;49.494;8.530;2023-07-24T13:16:08;9.20;;;6.23;;
27402;SDS011;14862;49.494;8.530;2023-07-24T13:18:34;10.30;;;6.40;;
27402;SDS011;14862;49.494;8.530;2023-07-24T13:20:59;6.57;;;5.75;;
27402;SDS011;14862;49.494;8.530;2023-07-24T13:23:24;7.13;;;5.67;;
27402;SDS011;14862;49.494;8.530;2023-07-24T13:25:51;6.88;;;5.65;;
27402;SDS011;14862;49.494;8.530;2023-07-24T13:28:17;9.25;;;6.32;;
27402;SDS011;14862;49.494;8.530;2023-07-24T13:30:42;8.77;;;6.57;;
27402;SDS011;14862;49.494;8.530;2023-07-24T13:33:07;7.83;;;6.07;;
27402;SDS011;14862;49.494;8.530;2023-07-24T13:35:32;9.48;;;5.93;;
27402;SDS011;14862;49.494;8.530;2023-07-24T13:37:57;8.23;;;5.60;;
27402;SDS011;14862;49.494;8.530;2023-07-24T13:40:23;9.52;;;6.35;;
27402;SDS011;14862;49.494;8.530;2023-07-24T13:42:48;9.00;;;6.40;;
27402;SDS011;14862;49.494;8.530;2023-07-24T13:45:13;7.82;;;6.20;;
27402;SDS011;14862;49.494;8.530;2023-07-24T13:47:38;7.47;;;6.00;;
27402;SDS011;14862;49.494;8.530;2023-07-24T13:50:04;10.07;;;6.37;;
27402;SDS011;14862;49.494;8.530;2023-07-24T13:52:29;7.88;;;6.07;;
27402;SDS011;14862;49.494;8.530;2023-07-24T13:54:55;8.88;;;6.10;;
27402;SDS011;14862;49.494;8.530;2023-07-24T13:57:20;8.63;;;5.68;;
27402;SDS011;14862;49.494;8.530;2023-07-24T13:59:45;7.27;;;6.00;;
27402;SDS011;14862;49.494;8.530;2023-07-24T14:02:10;9.27;;;5.70;;
27402;SDS011;14862;49.494;8.530;2023-07-24T14:04:37;8.05;;;6.00;;
27402;SDS011;14862;49.494;8.530;2023-07-24T14:07:02;8.68;;;5.80;;
27402;SDS011;14862;49.494;8.530;2023-07-24T14:09:28;7.18;;;5.60;;
27402;SDS011;14862;49.494;8.530;2023-07-24T14:11:53;6.97;;;5.67;;
27402;SDS011;14862;49.494;8.530;2023-07-24T14:14:18;8.03;;;6.00;;
27402;SDS011;14862;49.494;8.530;2023-07-24T14:16:43;9.27;;;6.22;;
27402;SDS011;14862;49.494;8.530;2023-07-24T14:19:08;10.88;;;7.63;;
27402;SDS011;14862;49.494;8.530;2023-07-24T14:21:34;9.25;;;7.10;;
27402;SDS011;14862;49.494;8.530;2023-07-24T14:23:59;15.83;;;7.60;;
27402;SDS011;14862;49.494;8.530;2023-07-24T14:26:24;14.27;;;7.37;;
27402;SDS011;14862;49.494;8.530;2023-07-24T14:28:49;11.80;;;7.30;;
27402;SDS011;14862;49.494;8.530;2023-07-24T14:31:14;11.27;;;7.00;;
27402;SDS011;14862;49.494;8.530;2023-07-24T14:33:40;11.50;;;7.17;;
27402;SDS011;14862;49.494;8.530;2023-07-24T14:36:05;11.73;;;7.38;;
27402;SDS011;14862;49.494;8.530;2023-07-24T14:38:30;12.13;;;7.40;;
27402;SDS011;14862;49.494;8.530;2023-07-24T14:40:55;11.10;;;7.93;;
27402;SDS011;14862;49.494;8.530;2023-07-24T14:43:20;9.82;;;7.47;;